GCFV Airport Information

Runway Information
Runway 01 Length 7874 ft width 148 ft
Elevation 37 ft Threshold 0 ft Heading 2
Runway 19 Length 7874 ft Width 148 ft
Elevation 75 ft Threshold 0 ft Heading 182
Airport Frequencies
Type APP Name CANARIAS A Frequency 129.3 MHZ
Type ATIS Name ATIS Frequency 118.65 MHZ
Type GND Name GND Frequency 121.7 MHZ
Type TWR Name TWR Frequency 118.5 MHZ
Airport Navaids
Type VOR-DME Name Fuerteventura Frequency 114100 KHZ
Airport Weather Information & NOTAM
ADDS - METARS form results

(1256 UTC 24 October 2021)
Data provider http://aviationweather.gov/metar/data/
 
METAR text: GCFV 241230Z 05010KT 9999 FEW035 25/15 Q1019
Conditions at: GCFV (FUERTEVENTURA AR, ES) observed 1230 UTC 24 October 2021
Temperature: 25.0°C (77°F)
Dewpoint: 15.0°C (59°F) [RH = 54%]
Pressure (altimeter): 30.09 inches Hg (1019.0 mb)
Winds: from the NE (50 degrees) at 12 MPH (10 knots; 5.1 m/s)
Visibility: 6 or more miles (10+ km)
Ceiling: at least 12,000 feet AGL
Clouds: few clouds at 3500 feet AGL
Weather: no significant weather observed at this time

METAR text: GCFV 241200Z 04011KT 9999 FEW035 25/16 Q1020
Conditions at: GCFV (FUERTEVENTURA AR, ES) observed 1200 UTC 24 October 2021
Temperature: 25.0°C (77°F)
Dewpoint: 16.0°C (61°F) [RH = 57%]
Pressure (altimeter): 30.12 inches Hg (1020.0 mb)
Winds: from the NE (40 degrees) at 13 MPH (11 knots; 5.7 m/s)
Visibility: 6 or more miles (10+ km)
Ceiling: at least 12,000 feet AGL
Clouds: few clouds at 3500 feet AGL
Weather: no significant weather observed at this time

Forecast for: AMD
Text: TAF AMD GCFV 241146Z 2411/2509 04009KT 9999 FEW035 TX25/2414Z TN21/2506Z
Forecast period: 1100 to 2100 UTC 24 October 2021
Forecast type: FROM: standard forecast or significant change
Winds: from the NE (40 degrees) at 10 MPH (9 knots; 4.6 m/s)
Visibility: 6 or more miles (10+ km)
Ceiling: at least 12,000 feet AGL
Clouds: few clouds at 3500 feet AGL
Weather: no significant weather forecast for this period
Text: BECMG 2421/2423 34010KT
Forecast period: 2100 UTC 24 October 2021 to 0900 UTC 25 October 2021
Forecast type: BECOMING: Conditions expected to become as follows by 2300 UTC 24 October 2021
Winds: from the NNW (340 degrees) at 12 MPH (10 knots; 5.1 m/s)
Visibility: 6 or more miles (10+ km)
Ceiling: at least 12,000 feet AGL
Clouds: few clouds at 3500 feet AGL
Weather: no significant weather forecast for this period